sensor_id;sensor_type;location;lat;lon;timestamp;pressure;altitude;pressure_sealevel;temperature;humidity
23446;BME280;11895;48.738;9.320;2023-04-07T00:00:04;98839.47;;;7.67;100.00
23446;BME280;11895;48.738;9.320;2023-04-07T00:02:37;98844.34;;;7.54;100.00
23446;BME280;11895;48.738;9.320;2023-04-07T00:05:08;98845.53;;;7.72;100.00
23446;BME280;11895;48.738;9.320;2023-04-07T00:07:36;98836.63;;;7.96;100.00
23446;BME280;11895;48.738;9.320;2023-04-07T00:10:24;98827.88;;;8.16;100.00
23446;BME280;11895;48.738;9.320;2023-04-07T00:12:52;98820.50;;;8.21;100.00
23446;BME280;11895;48.738;9.320;2023-04-07T00:15:20;98817.03;;;8.19;100.00
23446;BME280;11895;48.738;9.320;2023-04-07T00:17:47;98808.47;;;8.33;100.00
23446;BME280;11895;48.738;9.320;2023-04-07T00:20:15;98814.06;;;8.52;100.00
23446;BME280;11895;48.738;9.320;2023-04-07T00:22:44;98808.38;;;8.60;100.00
23446;BME280;11895;48.738;9.320;2023-04-07T00:25:11;98808.97;;;8.68;100.00
23446;BME280;11895;48.738;9.320;2023-04-07T00:27:39;98799.34;;;8.62;100.00
23446;BME280;11895;48.738;9.320;2023-04-07T00:30:07;98801.50;;;8.76;100.00
23446;BME280;11895;48.738;9.320;2023-04-07T00:32:35;98798.09;;;8.71;100.00
23446;BME280;11895;48.738;9.320;2023-04-07T00:35:03;98796.56;;;8.87;100.00
23446;BME280;11895;48.738;9.320;2023-04-07T00:37:31;98793.06;;;8.85;100.00
23446;BME280;11895;48.738;9.320;2023-04-07T00:39:59;98789.88;;;8.97;100.00
23446;BME280;11895;48.738;9.320;2023-04-07T00:42:27;98794.31;;;8.98;100.00
23446;BME280;11895;48.738;9.320;2023-04-07T00:44:54;98786.13;;;9.01;100.00
23446;BME280;11895;48.738;9.320;2023-04-07T00:47:22;98784.81;;;9.12;100.00
23446;BME280;11895;48.738;9.320;2023-04-07T00:49:50;98776.88;;;9.09;100.00
23446;BME280;11895;48.738;9.320;2023-04-07T00:52:18;98769.00;;;8.82;100.00
23446;BME280;11895;48.738;9.320;2023-04-07T00:54:53;98772.06;;;8.49;100.00
23446;BME280;11895;48.738;9.320;2023-04-07T00:57:22;98771.69;;;8.82;100.00
23446;BME280;11895;48.738;9.320;2023-04-07T00:59:51;98771.69;;;8.82;100.00
23446;BME280;11895;48.738;9.320;2023-04-07T01:02:41;98759.56;;;8.94;100.00
23446;BME280;11895;48.738;9.320;2023-04-07T01:08:15;98757.97;;;8.90;100.00
23446;BME280;11895;48.738;9.320;2023-04-07T01:10:51;98758.94;;;8.87;100.00
23446;BME280;11895;48.738;9.320;2023-04-07T01:13:45;98747.44;;;8.62;100.00
23446;BME280;11895;48.738;9.320;2023-04-07T01:16:36;98758.75;;;8.70;100.00
23446;BME280;11895;48.738;9.320;2023-04-07T01:19:13;98745.56;;;8.64;100.00
23446;BME280;11895;48.738;9.320;2023-04-07T01:21:52;98738.53;;;8.61;100.00
23446;BME280;11895;48.738;9.320;2023-04-07T01:29:52;98736.72;;;8.62;100.00
23446;BME280;11895;48.738;9.320;2023-04-07T01:32:21;98736.16;;;8.75;100.00
23446;BME280;11895;48.738;9.320;2023-04-07T01:35:17;98732.47;;;8.78;100.00
23446;BME280;11895;48.738;9.320;2023-04-07T01:37:46;98727.47;;;8.69;100.00
23446;BME280;11895;48.738;9.320;2023-04-07T01:40:16;98728.78;;;8.81;100.00
23446;BME280;11895;48.738;9.320;2023-04-07T01:42:45;98730.28;;;8.66;100.00
23446;BME280;11895;48.738;9.320;2023-04-07T01:45:15;98725.66;;;8.69;100.00
23446;BME280;11895;48.738;9.320;2023-04-07T01:47:42;98719.41;;;8.69;100.00
23446;BME280;11895;48.738;9.320;2023-04-07T01:50:11;98726.91;;;8.61;100.00
23446;BME280;11895;48.738;9.320;2023-04-07T01:52:41;98720.97;;;8.29;100.00
23446;BME280;11895;48.738;9.320;2023-04-07T01:55:09;98712.22;;;8.24;100.00
23446;BME280;11895;48.738;9.320;2023-04-07T01:57:49;98713.28;;;8.43;100.00
23446;BME280;11895;48.738;9.320;2023-04-07T02:00:20;98716.53;;;8.52;100.00
23446;BME280;11895;48.738;9.320;2023-04-07T02:02:56;98713.34;;;8.64;100.00
23446;BME280;11895;48.738;9.320;2023-04-07T02:05:27;98711.41;;;8.67;100.00
23446;BME280;11895;48.738;9.320;2023-04-07T02:08:01;98699.44;;;8.76;100.00
23446;BME280;11895;48.738;9.320;2023-04-07T02:10:35;98704.16;;;8.69;100.00
23446;BME280;11895;48.738;9.320;2023-04-07T02:13:08;98698.22;;;8.16;100.00
23446;BME280;11895;48.738;9.320;2023-04-07T02:15:40;98700.53;;;8.25;100.00
23446;BME280;11895;48.738;9.320;2023-04-07T02:18:13;98697.59;;;8.31;100.00
23446;BME280;11895;48.738;9.320;2023-04-07T02:20:43;98691.31;;;8.32;100.00
23446;BME280;11895;48.738;9.320;2023-04-07T02:23:12;98693.47;;;8.46;100.00
23446;BME280;11895;48.738;9.320;2023-04-07T02:25:40;98688.69;;;8.54;100.00
23446;BME280;11895;48.738;9.320;2023-04-07T02:28:08;98693.19;;;8.54;100.00
23446;BME280;11895;48.738;9.320;2023-04-07T02:30:35;98692.69;;;8.66;100.00
23446;BME280;11895;48.738;9.320;2023-04-07T02:33:03;98684.03;;;8.80;100.00
23446;BME280;11895;48.738;9.320;2023-04-07T02:35:31;98685.38;;;8.91;100.00
23446;BME280;11895;48.738;9.320;2023-04-07T02:38:01;98680.56;;;8.99;100.00
23446;BME280;11895;48.738;9.320;2023-04-07T02:40:29;98678.28;;;9.11;100.00
23446;BME280;11895;48.738;9.320;2023-04-07T02:42:57;98675.50;;;9.12;100.00
23446;BME280;11895;48.738;9.320;2023-04-07T02:45:25;98668.41;;;9.11;100.00
23446;BME280;11895;48.738;9.320;2023-04-07T02:47:52;98661.88;;;9.17;100.00
23446;BME280;11895;48.738;9.320;2023-04-07T02:50:20;98669.53;;;9.06;100.00
23446;BME280;11895;48.738;9.320;2023-04-07T02:52:48;98668.88;;;9.21;100.00
23446;BME280;11895;48.738;9.320;2023-04-07T02:55:15;98668.75;;;9.24;100.00
23446;BME280;11895;48.738;9.320;2023-04-07T02:57:51;98663.22;;;9.27;100.00
23446;BME280;11895;48.738;9.320;2023-04-07T03:00:33;98667.41;;;9.14;100.00
23446;BME280;11895;48.738;9.320;2023-04-07T03:03:10;98664.66;;;9.15;100.00
23446;BME280;11895;48.738;9.320;2023-04-07T03:05:43;98655.25;;;9.25;100.00
23446;BME280;11895;48.738;9.320;2023-04-07T03:08:12;98656.69;;;9.33;100.00
23446;BME280;11895;48.738;9.320;2023-04-07T03:10:40;98662.22;;;9.30;100.00
23446;BME280;11895;48.738;9.320;2023-04-07T03:13:08;98655.16;;;9.27;100.00
23446;BME280;11895;48.738;9.320;2023-04-07T03:15:37;98645.75;;;9.37;100.00
23446;BME280;11895;48.738;9.320;2023-04-07T03:18:07;98654.56;;;9.41;100.00
23446;BME280;11895;48.738;9.320;2023-04-07T03:20:36;98647.75;;;9.32;100.00
23446;BME280;11895;48.738;9.320;2023-04-07T03:23:09;98653.81;;;9.37;100.00
23446;BME280;11895;48.738;9.320;2023-04-07T03:25:37;98643.88;;;9.39;100.00
23446;BME280;11895;48.738;9.320;2023-04-07T03:28:05;98637.56;;;9.40;100.00
23446;BME280;11895;48.738;9.320;2023-04-07T03:30:36;98634.13;;;9.37;100.00
23446;BME280;11895;48.738;9.320;2023-04-07T03:33:04;98636.09;;;9.33;100.00
23446;BME280;11895;48.738;9.320;2023-04-07T03:35:32;98636.47;;;9.44;100.00
23446;BME280;11895;48.738;9.320;2023-04-07T03:38:00;98641.31;;;9.36;100.00
23446;BME280;11895;48.738;9.320;2023-04-07T03:40:27;98636.28;;;9.49;100.00
23446;BME280;11895;48.738;9.320;2023-04-07T03:42:55;98640.91;;;9.45;100.00
23446;BME280;11895;48.738;9.320;2023-04-07T03:45:23;98629.63;;;9.37;100.00
23446;BME280;11895;48.738;9.320;2023-04-07T03:47:52;98632.19;;;9.40;100.00
23446;BME280;11895;48.738;9.320;2023-04-07T03:50:21;98622.75;;;9.50;100.00
23446;BME280;11895;48.738;9.320;2023-04-07T03:53:12;98628.00;;;9.53;100.00
23446;BME280;11895;48.738;9.320;2023-04-07T03:55:43;98621.16;;;9.46;100.00
23446;BME280;11895;48.738;9.320;2023-04-07T03:58:20;98626.09;;;9.56;100.00
23446;BME280;11895;48.738;9.320;2023-04-07T04:00:48;98624.56;;;9.50;100.00
23446;BME280;11895;48.738;9.320;2023-04-07T04:03:16;98622.75;;;9.50;100.00
23446;BME280;11895;48.738;9.320;2023-04-07T04:05:56;98622.63;;;9.53;100.00
23446;BME280;11895;48.738;9.320;2023-04-07T04:08:28;98619.66;;;9.60;100.00
23446;BME280;11895;48.738;9.320;2023-04-07T04:10:56;98624.94;;;9.61;100.00
23446;BME280;11895;48.738;9.320;2023-04-07T04:13:29;98619.13;;;9.51;100.00
23446;BME280;11895;48.738;9.320;2023-04-07T04:16:01;98617.38;;;9.50;100.00
23446;BME280;11895;48.738;9.320;2023-04-07T04:18:30;98619.28;;;9.48;100.00
23446;BME280;11895;48.738;9.320;2023-04-07T04:20:58;98616.16;;;9.58;100.00
23446;BME280;11895;48.738;9.320;2023-04-07T04:23:26;98614.34;;;9.58;100.00
23446;BME280;11895;48.738;9.320;2023-04-07T04:25:56;98613.75;;;9.51;100.00
23446;BME280;11895;48.738;9.320;2023-04-07T04:28:27;98612.41;;;9.41;100.00
23446;BME280;11895;48.738;9.320;2023-04-07T04:30:55;98606.16;;;9.41;100.00
23446;BME280;11895;48.738;9.320;2023-04-07T04:33:24;98605.97;;;9.45;100.00
23446;BME280;11895;48.738;9.320;2023-04-07T04:35:56;98610.13;;;9.52;100.00
23446;BME280;11895;48.738;9.320;2023-04-07T04:38:25;98608.38;;;9.51;100.00
23446;BME280;11895;48.738;9.320;2023-04-07T04:41:04;98612.56;;;9.38;100.00
23446;BME280;11895;48.738;9.320;2023-04-07T04:43:32;98599.63;;;9.46;100.00
23446;BME280;11895;48.738;9.320;2023-04-07T04:46:02;98607.44;;;9.52;100.00
23446;BME280;11895;48.738;9.320;2023-04-07T04:48:35;98601.38;;;9.47;100.00
23446;BME280;11895;48.738;9.320;2023-04-07T04:51:04;98612.13;;;9.47;100.00
23446;BME280;11895;48.738;9.320;2023-04-07T04:53:35;98611.53;;;9.41;100.00
23446;BME280;11895;48.738;9.320;2023-04-07T04:56:04;98614.03;;;9.45;100.00
23446;BME280;11895;48.738;9.320;2023-04-07T04:58:39;98612.56;;;9.38;100.00
23446;BME280;11895;48.738;9.320;2023-04-07T05:01:10;98614.03;;;9.45;100.00
23446;BME280;11895;48.738;9.320;2023-04-07T05:03:53;98611.72;;;9.57;100.00
23446;BME280;11895;48.738;9.320;2023-04-07T05:06:33;98604.69;;;9.54;100.00
23446;BME280;11895;48.738;9.320;2023-04-07T05:09:06;98616.19;;;9.37;100.00
23446;BME280;11895;48.738;9.320;2023-04-07T05:11:40;98608.72;;;8.83;100.00
23446;BME280;11895;48.738;9.320;2023-04-07T05:14:08;98609.97;;;8.54;100.00
23446;BME280;11895;48.738;9.320;2023-04-07T05:16:40;98609.47;;;8.86;100.00
23446;BME280;11895;48.738;9.320;2023-04-07T05:19:14;98608.22;;;8.95;100.00
23446;BME280;11895;48.738;9.320;2023-04-07T05:21:41;98612.69;;;8.94;100.00
23446;BME280;11895;48.738;9.320;2023-04-07T05:24:09;98608.53;;;9.08;100.00
23446;BME280;11895;48.738;9.320;2023-04-07T05:26:37;98613.66;;;9.14;100.00
23446;BME280;11895;48.738;9.320;2023-04-07T05:29:05;98611.50;;;9.22;100.00
23446;BME280;11895;48.738;9.320;2023-04-07T05:31:32;98613.38;;;9.20;100.00
23446;BME280;11895;48.738;9.320;2023-04-07T05:34:06;98607.38;;;8.72;100.00
23446;BME280;11895;48.738;9.320;2023-04-07T05:36:46;98613.44;;;8.98;100.00
23446;BME280;11895;48.738;9.320;2023-04-07T05:39:15;98621.16;;;8.85;100.00
23446;BME280;11895;48.738;9.320;2023-04-07T05:41:44;98614.00;;;8.64;100.00
23446;BME280;11895;48.738;9.320;2023-04-07T05:44:13;98627.84;;;8.75;100.00
23446;BME280;11895;48.738;9.320;2023-04-07T05:46:41;98619.69;;;8.98;100.00
23446;BME280;11895;48.738;9.320;2023-04-07T05:49:09;98612.69;;;8.94;100.00
23446;BME280;11895;48.738;9.320;2023-04-07T05:51:49;98611.88;;;9.13;100.00
23446;BME280;11895;48.738;9.320;2023-04-07T05:54:17;98612.97;;;9.29;100.00
23446;BME280;11895;48.738;9.320;2023-04-07T05:56:45;98615.97;;;9.42;100.00
23446;BME280;11895;48.738;9.320;2023-04-07T05:59:13;98614.03;;;9.45;100.00
23446;BME280;11895;48.738;9.320;2023-04-07T06:01:41;98618.56;;;9.64;100.00
23446;BME280;11895;48.738;9.320;2023-04-07T06:04:10;98619.94;;;9.53;100.00
23446;BME280;11895;48.738;9.320;2023-04-07T06:06:38;98623.97;;;9.83;100.00
23446;BME280;11895;48.738;9.320;2023-04-07T06:09:05;98622.00;;;9.86;100.00
23446;BME280;11895;48.738;9.320;2023-04-07T06:11:34;98626.28;;;9.90;100.00
23446;BME280;11895;48.738;9.320;2023-04-07T06:14:01;98627.75;;;9.97;100.00
23446;BME280;11895;48.738;9.320;2023-04-07T06:16:28;98625.66;;;10.04;100.00
23446;BME280;11895;48.738;9.320;2023-04-07T06:18:57;98626.31;;;10.09;100.00
23446;BME280;11895;48.738;9.320;2023-04-07T06:21:24;98625.72;;;10.02;100.00
23446;BME280;11895;48.738;9.320;2023-04-07T06:23:53;98624.03;;;10.19;100.00
23446;BME280;11895;48.738;9.320;2023-04-07T06:26:20;98625.53;;;10.26;100.00
23446;BME280;11895;48.738;9.320;2023-04-07T06:28:47;98622.53;;;10.32;100.00
23446;BME280;11895;48.738;9.320;2023-04-07T06:31:15;98627.34;;;10.44;100.00
23446;BME280;11895;48.738;9.320;2023-04-07T06:33:44;98627.63;;;10.38;100.00
23446;BME280;11895;48.738;9.320;2023-04-07T06:36:12;98617.50;;;10.43;100.00
23446;BME280;11895;48.738;9.320;2023-04-07T06:38:39;98620.00;;;10.65;100.00
23446;BME280;11895;48.738;9.320;2023-04-07T06:41:07;98612.31;;;10.58;100.00
23446;BME280;11895;48.738;9.320;2023-04-07T06:43:37;98619.16;;;10.65;100.00
23446;BME280;11895;48.738;9.320;2023-04-07T06:46:07;98613.59;;;10.68;100.00
23446;BME280;11895;48.738;9.320;2023-04-07T06:48:35;98615.50;;;10.66;100.00
23446;BME280;11895;48.738;9.320;2023-04-07T06:51:02;98612.47;;;10.54;100.00
23446;BME280;11895;48.738;9.320;2023-04-07T06:53:29;98615.94;;;10.57;100.00
23446;BME280;11895;48.738;9.320;2023-04-07T06:56:09;98607.19;;;10.70;100.00
23446;BME280;11895;48.738;9.320;2023-04-07T06:58:38;98610.94;;;10.85;100.00
23446;BME280;11895;48.738;9.320;2023-04-07T07:01:06;98612.34;;;10.92;100.00
23446;BME280;11895;48.738;9.320;2023-04-07T07:03:33;98609.81;;;11.24;100.00
23446;BME280;11895;48.738;9.320;2023-04-07T07:06:01;98614.72;;;11.16;100.00
23446;BME280;11895;48.738;9.320;2023-04-07T07:08:29;98606.53;;;11.35;100.00
23446;BME280;11895;48.738;9.320;2023-04-07T07:10:57;98606.63;;;11.33;100.00
23446;BME280;11895;48.738;9.320;2023-04-07T07:13:25;98600.75;;;11.42;100.00
23446;BME280;11895;48.738;9.320;2023-04-07T07:15:53;98611.97;;;11.17;100.00
23446;BME280;11895;48.738;9.320;2023-04-07T07:18:21;98608.47;;;11.32;100.00
23446;BME280;11895;48.738;9.320;2023-04-07T07:20:48;98600.41;;;10.98;100.00
23446;BME280;11895;48.738;9.320;2023-04-07T07:23:16;98601.88;;;11.21;100.00
23446;BME280;11895;48.738;9.320;2023-04-07T07:25:44;98604.41;;;11.41;100.00
23446;BME280;11895;48.738;9.320;2023-04-07T07:28:11;98602.97;;;11.17;100.00
23446;BME280;11895;48.738;9.320;2023-04-07T07:30:39;98604.09;;;11.47;100.00
23446;BME280;11895;48.738;9.320;2023-04-07T07:33:07;98614.06;;;11.78;100.00
23446;BME280;11895;48.738;9.320;2023-04-07T07:35:35;98611.31;;;11.80;100.00
23446;BME280;11895;48.738;9.320;2023-04-07T07:38:04;98608.56;;;12.13;100.00
23446;BME280;11895;48.738;9.320;2023-04-07T07:40:32;98607.38;;;12.19;100.00
23446;BME280;11895;48.738;9.320;2023-04-07T07:43:00;98602.47;;;12.41;100.00
23446;BME280;11895;48.738;9.320;2023-04-07T07:45:28;98610.84;;;12.21;100.00
23446;BME280;11895;48.738;9.320;2023-04-07T07:47:55;98617.72;;;12.42;100.00
23446;BME280;11895;48.738;9.320;2023-04-07T07:50:23;98617.47;;;12.15;100.00
23446;BME280;11895;48.738;9.320;2023-04-07T07:52:51;98611.53;;;12.56;100.00
23446;BME280;11895;48.738;9.320;2023-04-07T07:55:20;98613.28;;;13.03;100.00
23446;BME280;11895;48.738;9.320;2023-04-07T07:57:53;98618.09;;;12.98;100.00
23446;BME280;11895;48.738;9.320;2023-04-07T08:00:20;98609.19;;;13.56;100.00
23446;BME280;11895;48.738;9.320;2023-04-07T08:02:50;98616.25;;;14.01;100.00
23446;BME280;11895;48.738;9.320;2023-04-07T08:05:18;98616.47;;;13.98;100.00
23446;BME280;11895;48.738;9.320;2023-04-07T08:07:45;98606.84;;;13.35;100.00
23446;BME280;11895;48.738;9.320;2023-04-07T08:10:13;98610.81;;;13.73;100.00
23446;BME280;11895;48.738;9.320;2023-04-07T08:12:41;98612.28;;;13.64;100.00
23446;BME280;11895;48.738;9.320;2023-04-07T08:15:09;98616.63;;;13.81;100.00
23446;BME280;11895;48.738;9.320;2023-04-07T08:17:37;98606.00;;;13.92;100.00
23446;BME280;11895;48.738;9.320;2023-04-07T08:20:05;98601.84;;;13.86;100.00
23446;BME280;11895;48.738;9.320;2023-04-07T08:22:34;98606.38;;;13.57;100.00
23446;BME280;11895;48.738;9.320;2023-04-07T08:25:02;98612.19;;;13.66;100.00
23446;BME280;11895;48.738;9.320;2023-04-07T08:27:30;98613.94;;;13.81;100.00
23446;BME280;11895;48.738;9.320;2023-04-07T08:29:59;98617.03;;;13.89;100.00
23446;BME280;11895;48.738;9.320;2023-04-07T08:32:42;98609.66;;;13.62;100.00
23446;BME280;11895;48.738;9.320;2023-04-07T08:35:11;98609.88;;;13.74;100.00
23446;BME280;11895;48.738;9.320;2023-04-07T08:37:39;98603.66;;;13.57;100.00
23446;BME280;11895;48.738;9.320;2023-04-07T08:40:07;98614.41;;;13.59;100.00
23446;BME280;11895;48.738;9.320;2023-04-07T08:42:41;98605.63;;;13.55;100.00
23446;BME280;11895;48.738;9.320;2023-04-07T08:45:12;98617.78;;;13.77;100.00
23446;BME280;11895;48.738;9.320;2023-04-07T08:47:40;98609.38;;;13.53;100.00
23446;BME280;11895;48.738;9.320;2023-04-07T08:50:10;98610.47;;;13.04;100.00
23446;BME280;11895;48.738;9.320;2023-04-07T08:52:55;98617.84;;;13.32;100.00
23446;BME280;11895;48.738;9.320;2023-04-07T08:55:26;98617.66;;;13.05;100.00
23446;BME280;11895;48.738;9.320;2023-04-07T08:57:54;98620.16;;;13.08;100.00
23446;BME280;11895;48.738;9.320;2023-04-07T09:00:22;98608.63;;;13.21;100.00
23446;BME280;11895;48.738;9.320;2023-04-07T09:02:50;98616.47;;;13.98;100.00
23446;BME280;11895;48.738;9.320;2023-04-07T09:05:19;98614.25;;;14.60;100.00
23446;BME280;11895;48.738;9.320;2023-04-07T09:08:12;98615.63;;;14.53;100.00
23446;BME280;11895;48.738;9.320;2023-04-07T09:10:39;98620.06;;;14.54;100.00
23446;BME280;11895;48.738;9.320;2023-04-07T09:13:07;98610.47;;;14.90;100.00
23446;BME280;11895;48.738;9.320;2023-04-07T09:15:35;98610.53;;;15.68;97.27
23446;BME280;11895;48.738;9.320;2023-04-07T09:18:05;98616.91;;;15.80;87.89
23446;BME280;11895;48.738;9.320;2023-04-07T09:23:31;98610.41;;;17.05;88.67
23446;BME280;11895;48.738;9.320;2023-04-07T09:26:17;98604.47;;;16.76;81.67
23446;BME280;11895;48.738;9.320;2023-04-07T09:28:59;98611.25;;;17.30;76.36
23446;BME280;11895;48.738;9.320;2023-04-07T09:31:48;98607.19;;;16.76;76.30
23446;BME280;11895;48.738;9.320;2023-04-07T09:34:31;98612.13;;;17.30;73.26
23446;BME280;11895;48.738;9.320;2023-04-07T09:37:01;98611.91;;;17.09;71.37
23446;BME280;11895;48.738;9.320;2023-04-07T09:39:31;98605.84;;;17.76;73.58
23446;BME280;11895;48.738;9.320;2023-04-07T09:42:06;98616.16;;;18.29;67.82
23446;BME280;11895;48.738;9.320;2023-04-07T09:44:39;98611.19;;;18.22;63.28
23446;BME280;11895;48.738;9.320;2023-04-07T09:47:10;98615.16;;;18.07;63.06
23446;BME280;11895;48.738;9.320;2023-04-07T09:49:51;98615.66;;;17.19;64.98
23446;BME280;11895;48.738;9.320;2023-04-07T09:52:47;98611.53;;;17.73;68.06
23446;BME280;11895;48.738;9.320;2023-04-07T09:55:19;98602.94;;;17.66;63.16
23446;BME280;11895;48.738;9.320;2023-04-07T09:58:12;98615.28;;;18.17;71.03
23446;BME280;11895;48.738;9.320;2023-04-07T10:00:41;98604.44;;;18.60;62.23
23446;BME280;11895;48.738;9.320;2023-04-07T10:03:08;98602.38;;;19.07;59.62
23446;BME280;11895;48.738;9.320;2023-04-07T10:05:37;98605.78;;;19.20;56.69
23446;BME280;11895;48.738;9.320;2023-04-07T10:08:05;98603.31;;;19.17;54.76
23446;BME280;11895;48.738;9.320;2023-04-07T10:10:34;98603.00;;;19.52;54.89
23446;BME280;11895;48.738;9.320;2023-04-07T10:13:04;98596.97;;;19.49;51.82
23446;BME280;11895;48.738;9.320;2023-04-07T10:15:32;98602.97;;;19.85;53.93
23446;BME280;11895;48.738;9.320;2023-04-07T10:18:01;98605.16;;;19.91;56.49
23446;BME280;11895;48.738;9.320;2023-04-07T10:20:31;98604.53;;;20.08;52.62
23446;BME280;11895;48.738;9.320;2023-04-07T10:23:12;98603.50;;;20.40;50.47
23446;BME280;11895;48.738;9.320;2023-04-07T10:25:50;98605.16;;;20.12;50.56
23446;BME280;11895;48.738;9.320;2023-04-07T10:28:21;98607.09;;;20.00;50.08
23446;BME280;11895;48.738;9.320;2023-04-07T10:30:51;98609.50;;;19.72;51.66
23446;BME280;11895;48.738;9.320;2023-04-07T10:33:46;98608.53;;;20.04;51.94
23446;BME280;11895;48.738;9.320;2023-04-07T10:36:17;98614.41;;;19.37;55.37
23446;BME280;11895;48.738;9.320;2023-04-07T10:41:39;98609.25;;;19.22;56.71
23446;BME280;11895;48.738;9.320;2023-04-07T10:47:08;98607.66;;;19.20;56.68
23446;BME280;11895;48.738;9.320;2023-04-07T10:49:36;98617.66;;;19.51;54.25
23446;BME280;11895;48.738;9.320;2023-04-07T10:52:23;98621.59;;;19.38;52.57
23446;BME280;11895;48.738;9.320;2023-04-07T10:58:23;98613.63;;;19.46;55.74
23446;BME280;11895;48.738;9.320;2023-04-07T11:03:37;98613.25;;;19.92;51.77
23446;BME280;11895;48.738;9.320;2023-04-07T11:06:12;98614.38;;;19.90;51.14
23446;BME280;11895;48.738;9.320;2023-04-07T11:08:43;98612.03;;;19.85;48.78
23446;BME280;11895;48.738;9.320;2023-04-07T11:11:19;98606.56;;;19.11;53.61
23446;BME280;11895;48.738;9.320;2023-04-07T11:14:01;98606.50;;;19.75;49.79
23446;BME280;11895;48.738;9.320;2023-04-07T11:16:41;98602.44;;;20.52;47.48
23446;BME280;11895;48.738;9.320;2023-04-07T11:19:13;98604.50;;;20.79;45.44
23446;BME280;11895;48.738;9.320;2023-04-07T11:21:41;98611.78;;;20.99;44.01
23446;BME280;11895;48.738;9.320;2023-04-07T11:24:09;98604.56;;;20.89;45.96
23446;BME280;11895;48.738;9.320;2023-04-07T11:26:38;98606.53;;;20.77;42.00
23446;BME280;11895;48.738;9.320;2023-04-07T11:29:09;98603.56;;;20.49;43.08
23446;BME280;11895;48.738;9.320;2023-04-07T11:31:38;98609.19;;;20.17;44.11
23446;BME280;11895;48.738;9.320;2023-04-07T11:34:06;98610.16;;;19.86;42.78
23446;BME280;11895;48.738;9.320;2023-04-07T11:36:38;98605.84;;;20.14;42.83
23446;BME280;11895;48.738;9.320;2023-04-07T11:39:21;98604.63;;;20.27;44.46
23446;BME280;11895;48.738;9.320;2023-04-07T11:41:49;98605.16;;;20.12;44.88
23446;BME280;11895;48.738;9.320;2023-04-07T11:44:17;98601.91;;;19.76;45.42
23446;BME280;11895;48.738;9.320;2023-04-07T11:46:58;98609.09;;;19.56;47.40
23446;BME280;11895;48.738;9.320;2023-04-07T11:49:27;98614.53;;;19.56;47.43
23446;BME280;11895;48.738;9.320;2023-04-07T11:52:05;98609.72;;;19.60;45.48
23446;BME280;11895;48.738;9.320;2023-04-07T11:54:46;98611.03;;;18.58;48.54
23446;BME280;11895;48.738;9.320;2023-04-07T11:57:14;98610.69;;;18.40;48.95
23446;BME280;11895;48.738;9.320;2023-04-07T12:00:04;98617.88;;;18.07;52.22
23446;BME280;11895;48.738;9.320;2023-04-07T12:02:35;98616.38;;;18.03;54.23
23446;BME280;11895;48.738;9.320;2023-04-07T12:05:08;98611.31;;;18.43;53.25
23446;BME280;11895;48.738;9.320;2023-04-07T12:07:38;98621.22;;;18.00;50.43
23446;BME280;11895;48.738;9.320;2023-04-07T12:10:23;98622.59;;;17.94;53.74
23446;BME280;11895;48.738;9.320;2023-04-07T12:12:54;98617.50;;;18.12;52.95
23446;BME280;11895;48.738;9.320;2023-04-07T12:15:28;98620.13;;;18.13;51.64
23446;BME280;11895;48.738;9.320;2023-04-07T12:17:56;98628.78;;;17.85;53.39
23446;BME280;11895;48.738;9.320;2023-04-07T12:20:24;98625.53;;;17.80;53.70
23446;BME280;11895;48.738;9.320;2023-04-07T12:22:52;98632.66;;;17.69;55.59
23446;BME280;11895;48.738;9.320;2023-04-07T12:25:20;98633.63;;;17.68;56.43
23446;BME280;11895;48.738;9.320;2023-04-07T12:27:47;98634.34;;;17.59;56.60
23446;BME280;11895;48.738;9.320;2023-04-07T12:30:15;98636.13;;;16.77;61.35
23446;BME280;11895;48.738;9.320;2023-04-07T12:32:43;98644.50;;;16.25;71.36
23446;BME280;11895;48.738;9.320;2023-04-07T12:35:11;98644.06;;;15.80;93.57
23446;BME280;11895;48.738;9.320;2023-04-07T12:37:39;98657.13;;;14.95;100.00
23446;BME280;11895;48.738;9.320;2023-04-07T12:40:07;98669.19;;;14.77;100.00
23446;BME280;11895;48.738;9.320;2023-04-07T12:42:36;98665.19;;;14.27;100.00
23446;BME280;11895;48.738;9.320;2023-04-07T12:45:03;98666.16;;;13.97;100.00
23446;BME280;11895;48.738;9.320;2023-04-07T12:47:31;98667.25;;;13.50;100.00
23446;BME280;11895;48.738;9.320;2023-04-07T12:50:00;98668.38;;;13.32;100.00
23446;BME280;11895;48.738;9.320;2023-04-07T12:52:28;98676.19;;;12.75;100.00
23446;BME280;11895;48.738;9.320;2023-04-07T12:54:55;98682.44;;;11.62;100.00
23446;BME280;11895;48.738;9.320;2023-04-07T12:57:23;98689.97;;;10.67;100.00
23446;BME280;11895;48.738;9.320;2023-04-07T12:59:50;98689.59;;;10.18;100.00
23446;BME280;11895;48.738;9.320;2023-04-07T13:02:19;98689.00;;;9.92;100.00
23446;BME280;11895;48.738;9.320;2023-04-07T13:04:47;98686.94;;;9.78;100.00
23446;BME280;11895;48.738;9.320;2023-04-07T13:07:15;98692.66;;;9.50;100.00
23446;BME280;11895;48.738;9.320;2023-04-07T13:09:43;98697.75;;;9.16;100.00
23446;BME280;11895;48.738;9.320;2023-04-07T13:12:11;98696.13;;;9.12;100.00
23446;BME280;11895;48.738;9.320;2023-04-07T13:14:41;98703.63;;;9.25;100.00
23446;BME280;11895;48.738;9.320;2023-04-07T13:17:25;98701.94;;;9.43;100.00
23446;BME280;11895;48.738;9.320;2023-04-07T13:19:53;98711.47;;;9.71;100.00
23446;BME280;11895;48.738;9.320;2023-04-07T13:22:21;98704.47;;;9.67;100.00
23446;BME280;11895;48.738;9.320;2023-04-07T13:24:50;98705.56;;;9.63;100.00
23446;BME280;11895;48.738;9.320;2023-04-07T13:27:17;98705.81;;;9.57;100.00
23446;BME280;11895;48.738;9.320;2023-04-07T13:29:45;98707.56;;;9.78;100.00
23446;BME280;11895;48.738;9.320;2023-04-07T13:32:12;98699.34;;;10.01;100.00
23446;BME280;11895;48.738;9.320;2023-04-07T13:34:42;98699.16;;;10.04;100.00
23446;BME280;11895;48.738;9.320;2023-04-07T13:37:11;98694.25;;;10.14;100.00
23446;BME280;11895;48.738;9.320;2023-04-07T13:39:38;98695.09;;;10.35;100.00